createdAt,value
2023-06-09T00:00:24.969Z,18.90
2023-06-09T00:02:52.564Z,18.70
2023-06-09T00:05:20.288Z,18.80
2023-06-09T00:07:48.861Z,18.80
2023-06-09T00:10:16.109Z,18.80
2023-06-09T00:12:43.491Z,18.80
2023-06-09T00:15:11.649Z,18.70
2023-06-09T00:17:41.337Z,18.70
2023-06-09T00:20:09.894Z,18.70
2023-06-09T00:22:43.944Z,18.60
2023-06-09T00:25:13.306Z,18.70
2023-06-09T00:27:41.234Z,18.50
2023-06-09T00:30:09.071Z,18.60
2023-06-09T00:32:36.625Z,18.50
2023-06-09T00:35:07.070Z,18.50
2023-06-09T00:37:35.934Z,18.50
2023-06-09T00:40:05.012Z,17.90
2023-06-09T00:42:32.423Z,18.30
2023-06-09T00:44:59.656Z,18.30
2023-06-09T00:47:27.597Z,18.20
2023-06-09T00:49:55.170Z,18.10
2023-06-09T00:52:22.508Z,18.10
2023-06-09T00:54:50.286Z,18.00
2023-06-09T00:57:17.542Z,18.00
2023-06-09T00:59:44.926Z,17.90
2023-06-09T01:02:13.935Z,17.90
2023-06-09T01:04:50.472Z,17.50
2023-06-09T01:07:40.109Z,17.90
2023-06-09T01:10:15.380Z,17.40
2023-06-09T01:12:53.737Z,18.50
2023-06-09T01:15:28.449Z,17.70
2023-06-09T01:18:00.483Z,17.60
2023-06-09T01:20:46.870Z,17.50
2023-06-09T01:23:38.923Z,17.60
2023-06-09T01:26:06.587Z,17.60
2023-06-09T01:28:36.198Z,17.50
2023-06-09T01:31:04.175Z,17.50
2023-06-09T01:33:32.757Z,17.50
2023-06-09T01:36:00.175Z,17.30
2023-06-09T01:38:27.854Z,17.10
2023-06-09T01:40:55.158Z,17.30
2023-06-09T01:43:22.390Z,17.30
2023-06-09T01:45:49.889Z,17.30
2023-06-09T01:48:40.551Z,17.10
2023-06-09T01:51:25.715Z,17.10
2023-06-09T01:53:59.679Z,17.10
2023-06-09T01:56:37.358Z,17.10
2023-06-09T01:59:08.424Z,17.00
2023-06-09T02:01:38.063Z,17.00
2023-06-09T02:04:07.277Z,17.00
2023-06-09T02:06:35.285Z,17.00
2023-06-09T02:09:02.794Z,16.90
2023-06-09T02:11:29.697Z,16.90
2023-06-09T02:13:57.649Z,16.90
2023-06-09T02:16:26.021Z,16.90
2023-06-09T02:18:54.259Z,16.70
2023-06-09T02:21:21.477Z,16.80
2023-06-09T02:23:48.695Z,16.60
2023-06-09T02:26:16.393Z,16.50
2023-06-09T02:28:43.595Z,16.50
2023-06-09T02:31:10.783Z,16.50
2023-06-09T02:33:37.806Z,16.50
2023-06-09T02:36:05.020Z,16.50
2023-06-09T02:38:32.541Z,16.50
2023-06-09T02:40:59.657Z,16.50
2023-06-09T02:43:26.686Z,16.50
2023-06-09T02:45:53.910Z,16.50
2023-06-09T02:48:21.155Z,16.50
2023-06-09T02:50:48.174Z,16.50
2023-06-09T02:53:15.876Z,16.90
2023-06-09T02:55:46.055Z,16.50
2023-06-09T02:58:16.586Z,16.50
2023-06-09T03:00:47.349Z,16.50
2023-06-09T03:03:14.976Z,16.50
2023-06-09T03:05:45.445Z,16.40
2023-06-09T03:08:12.905Z,16.60
2023-06-09T03:10:40.097Z,16.70
2023-06-09T03:13:07.302Z,16.60
2023-06-09T03:15:34.780Z,16.70
2023-06-09T03:18:01.905Z,16.80
2023-06-09T03:20:29.129Z,16.80
2023-06-09T03:22:56.862Z,16.90
2023-06-09T03:25:26.995Z,16.90
2023-06-09T03:27:54.684Z,17.10
2023-06-09T03:30:21.582Z,16.90
2023-06-09T03:32:48.768Z,16.90
2023-06-09T03:35:16.583Z,17.00
2023-06-09T03:37:43.939Z,17.00
2023-06-09T03:40:11.744Z,17.00
2023-06-09T03:42:38.869Z,17.10
2023-06-09T03:45:06.214Z,17.00
2023-06-09T03:47:33.246Z,17.00
2023-06-09T03:50:00.304Z,17.10
2023-06-09T03:52:28.261Z,17.10
2023-06-09T03:54:55.147Z,17.20
2023-06-09T03:57:22.659Z,17.30
2023-06-09T03:59:49.741Z,17.40
2023-06-09T04:02:16.621Z,17.40
2023-06-09T04:04:43.761Z,17.50
2023-06-09T04:07:12.453Z,17.50
2023-06-09T04:09:39.649Z,17.70
2023-06-09T04:12:06.922Z,17.50
2023-06-09T04:14:33.897Z,17.80
2023-06-09T04:17:01.247Z,17.80
2023-06-09T04:21:55.747Z,18.00
2023-06-09T04:24:22.722Z,18.00
2023-06-09T04:26:49.984Z,18.30
2023-06-09T04:29:18.981Z,18.20
2023-06-09T04:31:46.286Z,18.30
2023-06-09T04:34:14.064Z,18.30
2023-06-09T04:36:41.396Z,18.40
2023-06-09T04:39:09.259Z,18.40
2023-06-09T04:41:38.829Z,18.40
2023-06-09T04:44:07.532Z,18.50
2023-06-09T04:46:39.677Z,18.60
2023-06-09T04:49:10.422Z,18.70
2023-06-09T04:51:42.915Z,18.80
2023-06-09T04:54:12.200Z,18.60
2023-06-09T04:56:39.815Z,18.80
2023-06-09T04:59:07.424Z,18.90
2023-06-09T05:01:34.556Z,18.90
2023-06-09T05:04:01.647Z,19.00
2023-06-09T05:06:28.829Z,19.30
2023-06-09T05:08:56.593Z,19.10
2023-06-09T05:11:23.588Z,19.10
2023-06-09T05:13:50.608Z,19.20
2023-06-09T05:16:17.810Z,19.20
2023-06-09T05:18:44.992Z,19.30
2023-06-09T05:21:13.283Z,19.30
2023-06-09T05:23:40.242Z,19.40
2023-06-09T05:26:07.340Z,19.50
2023-06-09T05:28:34.195Z,19.50
2023-06-09T05:31:01.072Z,19.60
2023-06-09T05:33:27.966Z,19.60
2023-06-09T05:35:54.851Z,19.70
2023-06-09T05:38:24.512Z,19.80
2023-06-09T05:40:51.597Z,19.80
2023-06-09T05:43:18.950Z,19.90
2023-06-09T05:45:45.881Z,19.90
2023-06-09T05:48:13.145Z,20.00
2023-06-09T05:50:41.254Z,20.10
2023-06-09T05:53:08.208Z,20.20
2023-06-09T05:55:35.346Z,20.30
2023-06-09T05:58:04.249Z,20.30
2023-06-09T06:00:31.420Z,20.40
2023-06-09T06:03:01.360Z,20.50
2023-06-09T06:05:28.678Z,20.50
2023-06-09T06:07:55.562Z,20.60
2023-06-09T06:10:22.408Z,20.70
2023-06-09T06:12:49.316Z,20.80
2023-06-09T06:15:16.318Z,20.80
2023-06-09T06:17:43.253Z,20.90
2023-06-09T06:20:10.874Z,21.00
2023-06-09T06:22:37.797Z,21.10
2023-06-09T06:25:05.377Z,21.10
2023-06-09T06:27:32.213Z,21.20
2023-06-09T06:29:59.043Z,21.30
2023-06-09T06:32:27.009Z,21.40
2023-06-09T06:34:53.899Z,21.40
2023-06-09T06:37:23.595Z,21.40
2023-06-09T06:39:50.444Z,21.50
2023-06-09T06:42:17.261Z,21.60
2023-06-09T06:44:44.207Z,21.60
2023-06-09T06:47:11.245Z,21.70
2023-06-09T06:49:38.189Z,21.20
2023-06-09T06:52:05.401Z,21.80
2023-06-09T06:54:32.230Z,21.90
2023-06-09T06:56:59.062Z,21.90
2023-06-09T06:59:25.889Z,22.00
2023-06-09T07:01:52.757Z,22.10
2023-06-09T07:04:19.643Z,22.20
2023-06-09T07:06:47.030Z,22.30
2023-06-09T07:09:13.940Z,22.90
2023-06-09T07:11:45.231Z,22.40
2023-06-09T07:14:13.685Z,22.50
2023-06-09T07:16:41.418Z,22.50
2023-06-09T07:19:10.512Z,22.60
2023-06-09T07:21:37.649Z,22.70
2023-06-09T07:24:05.472Z,22.80
2023-06-09T07:26:33.748Z,22.80
2023-06-09T07:29:00.722Z,22.80
2023-06-09T07:31:28.133Z,22.90
2023-06-09T07:33:55.088Z,22.90
2023-06-09T07:36:21.915Z,23.00
2023-06-09T07:38:49.572Z,23.10
2023-06-09T07:41:16.488Z,23.10
2023-06-09T07:43:44.995Z,23.20
2023-06-09T07:46:13.131Z,23.20
2023-06-09T07:48:40.752Z,23.20
2023-06-09T07:51:07.584Z,23.30
2023-06-09T07:53:37.029Z,24.10
2023-06-09T07:56:04.189Z,23.40
2023-06-09T07:58:31.264Z,23.50
2023-06-09T08:00:58.115Z,23.50
2023-06-09T08:03:26.388Z,23.50
2023-06-09T08:05:53.277Z,23.60
2023-06-09T08:08:20.107Z,23.60
2023-06-09T08:10:46.931Z,23.70
2023-06-09T08:13:16.786Z,23.70
2023-06-09T08:15:45.454Z,23.70
2023-06-09T08:18:12.680Z,23.70
2023-06-09T08:20:41.604Z,23.70
2023-06-09T08:23:11.302Z,23.80
2023-06-09T08:25:41.390Z,23.80
2023-06-09T08:28:09.371Z,23.80
2023-06-09T08:30:36.328Z,23.80
2023-06-09T08:33:03.244Z,23.90
2023-06-09T08:35:33.309Z,23.90
2023-06-09T08:38:01.388Z,23.90
2023-06-09T08:40:28.417Z,23.90
2023-06-09T08:42:57.020Z,23.90
2023-06-09T08:45:26.558Z,24.00
2023-06-09T08:48:01.476Z,24.00
2023-06-09T08:50:32.727Z,24.10
2023-06-09T08:53:01.024Z,24.10
2023-06-09T08:55:28.640Z,24.20
2023-06-09T08:57:55.609Z,24.20
2023-06-09T09:00:23.347Z,24.20
2023-06-09T09:02:50.275Z,24.30
2023-06-09T09:05:17.166Z,24.40
2023-06-09T09:07:46.391Z,24.40
2023-06-09T09:10:13.784Z,24.60
2023-06-09T09:12:55.987Z,24.70
2023-06-09T09:15:27.015Z,24.80
2023-06-09T09:17:53.925Z,24.80
2023-06-09T09:20:34.505Z,25.00
2023-06-09T09:23:03.238Z,24.90
2023-06-09T09:25:31.313Z,25.00
2023-06-09T09:28:08.795Z,25.00
2023-06-09T09:30:44.790Z,25.00
2023-06-09T09:33:16.748Z,25.00
2023-06-09T09:35:49.514Z,25.10
2023-06-09T09:38:22.426Z,25.10
2023-06-09T09:40:51.883Z,25.20
2023-06-09T09:43:21.186Z,25.20
2023-06-09T09:45:51.515Z,25.20
2023-06-09T09:48:20.817Z,25.30
2023-06-09T09:50:52.407Z,25.40
2023-06-09T09:53:26.594Z,25.50
2023-06-09T09:55:55.514Z,25.50
2023-06-09T09:58:35.948Z,25.60
2023-06-09T10:01:09.108Z,25.70
2023-06-09T10:03:38.744Z,25.70
2023-06-09T10:06:10.376Z,25.70
2023-06-09T10:08:39.738Z,25.70
2023-06-09T10:11:07.758Z,25.70
2023-06-09T10:13:34.994Z,25.70
2023-06-09T10:16:02.619Z,25.70
2023-06-09T10:18:29.454Z,25.70
2023-06-09T10:20:56.898Z,25.70
2023-06-09T10:23:24.505Z,25.80
2023-06-09T10:25:52.226Z,25.80
2023-06-09T10:28:21.156Z,25.80
2023-06-09T10:30:54.249Z,25.70
2023-06-09T10:33:36.977Z,25.70
2023-06-09T10:36:06.751Z,25.90
2023-06-09T10:38:37.286Z,25.80
2023-06-09T10:41:28.293Z,25.90
2023-06-09T10:44:20.309Z,26.00
2023-06-09T10:46:49.390Z,26.20
2023-06-09T10:49:38.109Z,26.30
2023-06-09T10:52:10.066Z,26.40
2023-06-09T10:54:37.037Z,26.40
2023-06-09T10:57:36.539Z,26.50
2023-06-09T11:00:11.395Z,26.50
2023-06-09T11:02:42.338Z,26.40
2023-06-09T11:05:12.169Z,26.40
2023-06-09T11:07:44.871Z,26.40
2023-06-09T11:10:14.542Z,26.40
2023-06-09T11:12:46.781Z,26.40
2023-06-09T11:15:16.665Z,26.20
2023-06-09T11:17:53.820Z,26.30
2023-06-09T11:20:25.142Z,26.30
2023-06-09T11:22:52.439Z,26.30
2023-06-09T11:25:19.386Z,26.50
2023-06-09T11:27:46.233Z,26.60
2023-06-09T11:30:19.718Z,26.80
2023-06-09T11:33:00.062Z,26.90
2023-06-09T11:35:30.008Z,27.00
2023-06-09T11:37:58.332Z,27.10
2023-06-09T11:40:33.683Z,27.20
2023-06-09T11:43:02.880Z,27.30
2023-06-09T11:45:33.199Z,27.40
2023-06-09T11:48:02.095Z,27.50
2023-06-09T11:50:41.647Z,27.60
2023-06-09T11:53:10.874Z,27.80
2023-06-09T11:55:38.513Z,28.00
2023-06-09T11:58:07.256Z,28.30
2023-06-09T12:00:34.755Z,28.40
2023-06-09T12:03:02.770Z,28.40
2023-06-09T12:05:30.042Z,28.30
2023-06-09T12:07:57.014Z,28.20
2023-06-09T12:10:27.778Z,28.20
2023-06-09T12:12:59.388Z,28.40
2023-06-09T12:15:29.651Z,28.80
2023-06-09T12:18:04.616Z,29.20
2023-06-09T12:20:33.901Z,29.40
2023-06-09T12:23:04.886Z,29.60
2023-06-09T12:25:40.330Z,29.60
2023-06-09T12:28:30.850Z,29.50
2023-06-09T12:31:07.390Z,29.40
2023-06-09T12:33:37.265Z,29.10
2023-06-09T12:36:13.461Z,28.70
2023-06-09T12:38:47.099Z,28.70
2023-06-09T12:41:17.201Z,28.50
2023-06-09T12:44:00.519Z,28.20
2023-06-09T12:46:28.502Z,27.60
2023-06-09T12:49:06.132Z,27.60
2023-06-09T12:51:34.995Z,27.30
2023-06-09T12:54:08.141Z,27.10
2023-06-09T12:56:35.228Z,26.90
2023-06-09T12:59:02.717Z,26.00
2023-06-09T13:01:32.626Z,26.60
2023-06-09T13:03:59.988Z,26.50
2023-06-09T13:06:27.179Z,26.60
2023-06-09T13:08:54.189Z,26.70
2023-06-09T13:11:21.034Z,27.00
2023-06-09T13:13:47.907Z,27.40
2023-06-09T13:16:14.912Z,27.80
2023-06-09T13:18:41.977Z,28.20
2023-06-09T13:21:08.851Z,28.60
2023-06-09T13:23:35.796Z,29.00
2023-06-09T13:26:02.735Z,29.20
2023-06-09T13:28:29.832Z,29.50
2023-06-09T13:30:58.080Z,29.60
2023-06-09T13:33:24.989Z,29.60
2023-06-09T13:35:53.924Z,29.60
2023-06-09T13:38:21.228Z,29.50
2023-06-09T13:40:50.041Z,29.60
2023-06-09T13:43:19.918Z,29.60
2023-06-09T13:45:46.781Z,29.70
2023-06-09T13:48:13.848Z,29.90
2023-06-09T13:50:41.191Z,30.00
2023-06-09T13:53:08.284Z,30.00
2023-06-09T13:55:35.207Z,30.10
2023-06-09T13:58:02.086Z,30.10
2023-06-09T14:00:29.133Z,30.10
2023-06-09T14:02:56.359Z,30.20
2023-06-09T14:05:26.126Z,30.30
2023-06-09T14:07:53.682Z,30.50
2023-06-09T14:10:20.870Z,30.50
2023-06-09T14:12:51.425Z,30.50
2023-06-09T14:15:27.192Z,30.70
2023-06-09T14:17:57.172Z,30.70
2023-06-09T14:20:27.089Z,30.90
2023-06-09T14:22:54.720Z,30.90
2023-06-09T14:25:23.229Z,31.20
2023-06-09T14:27:52.401Z,31.10
2023-06-09T14:30:19.946Z,31.20
2023-06-09T14:32:49.633Z,31.30
2023-06-09T14:35:23.953Z,31.40
2023-06-09T14:38:00.068Z,31.50
2023-06-09T14:40:31.649Z,31.50
2023-06-09T14:42:59.647Z,31.50
2023-06-09T14:45:26.625Z,31.60
2023-06-09T14:47:56.319Z,31.60
2023-06-09T14:50:32.381Z,31.60
2023-06-09T14:53:00.060Z,31.60
2023-06-09T14:55:28.849Z,31.50
2023-06-09T14:57:57.438Z,31.60
2023-06-09T15:00:26.047Z,31.50
2023-06-09T15:02:57.500Z,31.20
2023-06-09T15:05:27.299Z,31.20
2023-06-09T15:07:56.008Z,31.00
2023-06-09T15:10:24.011Z,30.70
2023-06-09T15:12:51.365Z,30.30
2023-06-09T15:15:20.130Z,30.10
2023-06-09T15:17:47.560Z,29.90
2023-06-09T15:20:15.605Z,29.70
2023-06-09T15:22:42.524Z,29.60
2023-06-09T15:25:11.124Z,29.60
2023-06-09T15:27:38.878Z,29.60
2023-06-09T15:30:07.604Z,29.60
2023-06-09T15:32:35.575Z,29.70
2023-06-09T15:35:03.581Z,29.70
2023-06-09T15:37:30.533Z,29.70
2023-06-09T15:39:57.556Z,29.70
2023-06-09T15:42:24.563Z,29.70
2023-06-09T15:44:53.117Z,29.60
2023-06-09T15:47:19.983Z,29.50
2023-06-09T15:49:46.850Z,29.20
2023-06-09T15:52:13.720Z,29.20
2023-06-09T15:54:40.725Z,29.10
2023-06-09T15:57:07.958Z,28.90
2023-06-09T15:59:35.540Z,28.80
2023-06-09T16:02:02.518Z,28.60
2023-06-09T16:04:29.419Z,28.60
2023-06-09T16:06:56.394Z,28.50
2023-06-09T16:09:23.261Z,28.40
2023-06-09T16:11:50.136Z,28.40
2023-06-09T16:14:17.026Z,28.40
2023-06-09T16:16:43.960Z,28.30
2023-06-09T16:19:10.877Z,28.40
2023-06-09T16:21:38.348Z,28.40
2023-06-09T16:24:05.757Z,28.40
2023-06-09T16:26:32.660Z,28.30
2023-06-09T16:28:59.582Z,28.30
2023-06-09T16:31:27.258Z,28.20
2023-06-09T16:33:54.317Z,28.00
2023-06-09T16:36:21.989Z,28.00
2023-06-09T16:38:48.897Z,27.90
2023-06-09T16:41:16.155Z,27.80
2023-06-09T16:43:43.298Z,27.70
2023-06-09T16:46:10.763Z,27.50
2023-06-09T16:48:37.664Z,27.50
2023-06-09T16:51:04.741Z,27.40
2023-06-09T16:53:31.728Z,27.30
2023-06-09T16:55:59.036Z,27.20
2023-06-09T16:58:26.072Z,27.00
2023-06-09T17:00:52.953Z,27.00
2023-06-09T17:03:19.952Z,27.00
2023-06-09T17:05:46.894Z,26.80
2023-06-09T17:08:16.252Z,26.80
2023-06-09T17:10:43.359Z,26.80
2023-06-09T17:13:10.301Z,26.70
2023-06-09T17:15:38.090Z,26.70
2023-06-09T17:18:05.400Z,26.70
2023-06-09T17:20:33.982Z,26.60
2023-06-09T17:23:01.224Z,26.60
2023-06-09T17:25:28.245Z,26.60
2023-06-09T17:27:55.141Z,26.50
2023-06-09T17:30:22.002Z,26.30
2023-06-09T17:32:49.154Z,26.40
2023-06-09T17:35:16.285Z,26.40
2023-06-09T17:37:43.202Z,26.40
2023-06-09T17:40:14.253Z,25.90
2023-06-09T17:42:41.407Z,26.00
2023-06-09T17:45:10.612Z,26.30
2023-06-09T17:47:38.079Z,25.90
2023-06-09T17:50:06.610Z,25.90
2023-06-09T17:52:34.143Z,25.90
2023-06-09T17:55:04.140Z,25.70
2023-06-09T17:57:32.110Z,26.00
2023-06-09T18:00:00.443Z,25.90
2023-06-09T18:02:27.747Z,25.90
2023-06-09T18:04:54.714Z,26.00
2023-06-09T18:07:21.644Z,25.60
2023-06-09T18:09:48.525Z,25.80
2023-06-09T18:12:15.602Z,25.90
2023-06-09T18:14:42.539Z,25.70
2023-06-09T18:17:09.706Z,25.70
2023-06-09T18:19:37.261Z,25.70
2023-06-09T18:22:04.345Z,25.60
2023-06-09T18:24:31.225Z,25.50
2023-06-09T18:26:58.066Z,25.50
2023-06-09T18:29:24.951Z,25.50
2023-06-09T18:31:51.942Z,25.40
2023-06-09T18:34:18.800Z,25.30
2023-06-09T18:36:45.954Z,25.30
2023-06-09T18:39:12.801Z,25.30
2023-06-09T18:41:40.338Z,25.30
2023-06-09T18:44:13.014Z,25.30
2023-06-09T18:46:40.119Z,25.20
2023-06-09T18:49:07.169Z,25.20
2023-06-09T18:51:34.240Z,25.20
2023-06-09T18:54:01.883Z,25.10
2023-06-09T18:56:29.096Z,25.10
2023-06-09T18:58:56.476Z,25.10
2023-06-09T19:01:23.736Z,25.00
2023-06-09T19:03:51.207Z,25.00
2023-06-09T19:06:18.735Z,24.90
2023-06-09T19:08:46.436Z,24.80
2023-06-09T19:11:14.166Z,24.80
2023-06-09T19:13:41.044Z,24.80
2023-06-09T19:16:08.076Z,24.70
2023-06-09T19:18:34.987Z,24.70
2023-06-09T19:21:01.835Z,24.60
2023-06-09T19:23:28.725Z,24.60
2023-06-09T19:25:55.914Z,24.60
2023-06-09T19:28:22.830Z,24.60
2023-06-09T19:30:49.807Z,24.60
2023-06-09T19:33:16.843Z,24.50
2023-06-09T19:35:43.939Z,24.50
2023-06-09T19:38:10.912Z,24.50
2023-06-09T19:40:37.882Z,24.40
2023-06-09T19:43:04.915Z,24.40
2023-06-09T19:45:31.910Z,24.40
2023-06-09T19:47:58.831Z,24.40
2023-06-09T19:50:26.208Z,24.40
2023-06-09T19:52:53.276Z,24.30
2023-06-09T19:55:20.930Z,24.30
2023-06-09T19:57:47.755Z,24.30
2023-06-09T20:00:18.403Z,24.20
2023-06-09T20:02:45.462Z,24.20
2023-06-09T20:05:15.807Z,24.10
2023-06-09T20:07:42.775Z,24.10
2023-06-09T20:10:09.922Z,24.10
2023-06-09T20:12:36.838Z,24.20
2023-06-09T20:15:04.662Z,23.90
2023-06-09T20:17:31.694Z,24.00
2023-06-09T20:19:58.779Z,24.00
2023-06-09T20:22:25.654Z,24.00
2023-06-09T20:24:52.818Z,24.00
2023-06-09T20:27:19.921Z,24.20
2023-06-09T20:29:48.725Z,23.70
2023-06-09T20:32:15.938Z,23.90
2023-06-09T20:34:42.961Z,23.90
2023-06-09T20:37:10.074Z,23.80
2023-06-09T20:39:38.254Z,23.80
2023-06-09T20:42:07.441Z,23.80
2023-06-09T20:44:34.757Z,23.80
2023-06-09T20:47:03.735Z,23.80
2023-06-09T20:49:30.963Z,23.60
2023-06-09T20:51:57.974Z,23.70
2023-06-09T20:54:25.154Z,23.70
2023-06-09T20:56:52.279Z,23.70
2023-06-09T20:59:19.358Z,23.70
2023-06-09T21:01:47.735Z,23.70
2023-06-09T21:04:16.937Z,23.60
2023-06-09T21:06:46.979Z,23.60
2023-06-09T21:09:14.821Z,23.60
2023-06-09T21:11:43.593Z,23.60
2023-06-09T21:14:10.729Z,23.70
2023-06-09T21:16:38.333Z,23.60
2023-06-09T21:19:05.665Z,23.50
2023-06-09T21:21:32.693Z,23.50
2023-06-09T21:23:59.947Z,23.40
2023-06-09T21:26:27.645Z,23.40
2023-06-09T21:28:56.188Z,23.30
2023-06-09T21:31:24.125Z,23.50
2023-06-09T21:33:54.335Z,23.50
2023-06-09T21:36:22.327Z,23.30
2023-06-09T21:38:49.244Z,23.20
2023-06-09T21:41:16.138Z,23.50
2023-06-09T21:43:43.496Z,23.40
2023-06-09T21:46:10.558Z,23.50
2023-06-09T21:48:37.673Z,23.40
2023-06-09T21:51:04.785Z,23.40
2023-06-09T21:53:31.946Z,23.20
2023-06-09T21:55:59.119Z,23.40
2023-06-09T21:58:26.214Z,23.30
2023-06-09T22:00:53.154Z,23.40
2023-06-09T22:03:21.341Z,23.00
2023-06-09T22:05:48.423Z,23.30
2023-06-09T22:08:15.538Z,23.20
2023-06-09T22:10:42.757Z,23.20
2023-06-09T22:13:09.809Z,23.00
2023-06-09T22:15:36.932Z,23.20
2023-06-09T22:18:07.127Z,23.10
2023-06-09T22:20:34.340Z,23.00
2023-06-09T22:23:01.642Z,22.90
2023-06-09T22:25:28.827Z,22.90
2023-06-09T22:27:56.320Z,23.00
2023-06-09T22:32:51.079Z,20.20
2023-06-09T22:35:18.290Z,23.20
2023-06-09T22:37:47.549Z,23.10
2023-06-09T22:40:14.535Z,23.00
2023-06-09T22:45:09.533Z,23.00
2023-06-09T22:47:37.054Z,22.70
2023-06-09T22:50:05.101Z,22.90
2023-06-09T22:52:33.398Z,22.80
2023-06-09T22:55:01.420Z,22.90
2023-06-09T22:57:28.508Z,22.40
2023-06-09T23:02:24.222Z,22.70
2023-06-09T23:04:53.261Z,22.40
2023-06-09T23:07:22.601Z,24.20
2023-06-09T23:09:49.655Z,22.50
2023-06-09T23:14:45.453Z,22.40
2023-06-09T23:17:12.582Z,22.50
2023-06-09T23:19:40.598Z,21.00
2023-06-09T23:22:14.136Z,22.40
2023-06-09T23:24:42.182Z,22.40
2023-06-09T23:27:13.201Z,22.20
2023-06-09T23:29:40.412Z,22.30
2023-06-09T23:32:13.824Z,22.30
2023-06-09T23:34:42.025Z,22.30
2023-06-09T23:37:11.416Z,22.30
2023-06-09T23:39:38.603Z,22.30
2023-06-09T23:42:07.082Z,22.30
2023-06-09T23:47:01.486Z,22.30
2023-06-09T23:49:28.688Z,22.40
2023-06-09T23:51:55.797Z,22.50
2023-06-09T23:54:23.569Z,22.30
2023-06-09T23:59:18.338Z,22.20
